createdAt,value
2019-03-17T00:01:57.191Z,56.65
2019-03-17T00:04:31.459Z,56.26
2019-03-17T00:06:56.460Z,56.06
2019-03-17T00:09:27.449Z,56.34
2019-03-17T00:11:58.372Z,56.46
2019-03-17T00:14:29.223Z,56.75
2019-03-17T00:17:00.196Z,57.01
2019-03-17T00:19:31.257Z,56.49
2019-03-17T00:22:02.296Z,56.47
2019-03-17T00:24:33.218Z,56.54
2019-03-17T00:27:04.079Z,56.50
2019-03-17T00:29:35.006Z,56.50
2019-03-17T00:32:06.177Z,56.35
2019-03-17T00:34:44.115Z,56.58
2019-03-17T00:37:09.879Z,56.65
2019-03-17T00:39:40.985Z,56.83
2019-03-17T00:42:12.325Z,56.80
2019-03-17T00:44:43.207Z,56.74
2019-03-17T00:47:14.046Z,56.94
2019-03-17T00:49:44.914Z,56.92
2019-03-17T00:52:18.702Z,57.02
2019-03-17T00:54:49.556Z,57.15
2019-03-17T00:57:20.433Z,57.19
2019-03-17T00:59:51.315Z,57.26
2019-03-17T01:02:22.256Z,57.57
2019-03-17T01:04:56.380Z,57.53
2019-03-17T01:07:26.032Z,57.98
2019-03-17T01:09:57.204Z,57.98
2019-03-17T01:12:29.012Z,57.51
2019-03-17T01:15:00.391Z,57.42
2019-03-17T01:17:31.161Z,57.73
2019-03-17T01:20:02.725Z,57.73
2019-03-17T01:22:33.604Z,57.64
2019-03-17T01:25:04.914Z,57.71
2019-03-17T01:27:36.132Z,57.64
2019-03-17T01:30:07.547Z,57.80
2019-03-17T01:32:39.094Z,57.89
2019-03-17T01:35:10.385Z,57.81
2019-03-17T01:37:41.658Z,57.78
2019-03-17T01:40:12.564Z,57.88
2019-03-17T01:42:44.484Z,57.69
2019-03-17T01:45:15.712Z,58.05
2019-03-17T01:47:46.559Z,58.20
2019-03-17T01:50:17.708Z,58.00
2019-03-17T01:52:48.541Z,58.13
2019-03-17T01:55:19.559Z,58.21
2019-03-17T01:57:50.673Z,58.16
2019-03-17T02:00:23.300Z,58.30
2019-03-17T02:02:54.532Z,58.39
2019-03-17T02:05:25.398Z,58.37
2019-03-17T02:07:56.325Z,58.55
2019-03-17T02:10:27.159Z,58.40
2019-03-17T02:12:58.964Z,58.63
2019-03-17T02:15:30.146Z,58.57
2019-03-17T02:18:01.036Z,58.73
2019-03-17T02:20:31.985Z,58.89
2019-03-17T02:23:02.897Z,58.80
2019-03-17T02:25:34.477Z,58.82
2019-03-17T02:28:05.333Z,58.91
2019-03-17T02:30:36.288Z,58.76
2019-03-17T02:33:07.109Z,58.57
2019-03-17T02:35:39.982Z,58.54
2019-03-17T02:38:10.990Z,58.70
2019-03-17T02:40:42.148Z,58.54
2019-03-17T02:43:13.478Z,58.53
2019-03-17T02:45:44.357Z,58.65
2019-03-17T02:48:15.696Z,58.72
2019-03-17T02:50:47.076Z,58.96
2019-03-17T02:53:17.991Z,58.73
2019-03-17T02:55:49.114Z,58.80
2019-03-17T02:58:20.444Z,58.69
2019-03-17T03:00:51.548Z,58.44
2019-03-17T03:03:22.625Z,58.57
2019-03-17T03:05:55.638Z,58.63
2019-03-17T03:08:26.467Z,58.73
2019-03-17T03:10:57.561Z,58.52
2019-03-17T03:13:29.638Z,58.40
2019-03-17T03:16:00.572Z,58.63
2019-03-17T03:18:31.673Z,58.21
2019-03-17T03:21:02.518Z,58.17
2019-03-17T03:23:33.467Z,58.20
2019-03-17T03:26:05.437Z,57.88
2019-03-17T03:28:36.579Z,58.05
2019-03-17T03:31:07.750Z,58.27
2019-03-17T03:33:38.901Z,58.59
2019-03-17T03:36:11.882Z,58.43
2019-03-17T03:38:43.095Z,58.48
2019-03-17T03:41:14.209Z,58.20
2019-03-17T03:43:45.102Z,58.34
2019-03-17T03:46:15.940Z,58.02
2019-03-17T03:48:46.785Z,58.25
2019-03-17T03:51:17.648Z,58.12
2019-03-17T03:53:48.492Z,58.12
2019-03-17T03:56:22.472Z,58.10
2019-03-17T03:58:53.748Z,58.34
2019-03-17T04:01:24.608Z,58.35
2019-03-17T04:03:55.813Z,58.15
2019-03-17T04:06:27.299Z,58.40
2019-03-17T04:08:58.223Z,58.22
2019-03-17T04:11:29.296Z,58.10
2019-03-17T04:14:00.401Z,58.27
2019-03-17T04:16:32.053Z,58.31
2019-03-17T04:19:03.406Z,58.33
2019-03-17T04:21:34.521Z,58.27
2019-03-17T04:24:06.376Z,58.12
2019-03-17T04:26:37.298Z,58.24
2019-03-17T04:29:08.150Z,58.01
2019-03-17T04:31:39.382Z,58.21
2019-03-17T04:34:10.487Z,58.15
2019-03-17T04:36:41.540Z,57.96
2019-03-17T04:39:12.754Z,57.89
2019-03-17T04:41:43.812Z,58.00
2019-03-17T04:44:20.899Z,58.07
2019-03-17T04:46:47.173Z,58.03
2019-03-17T04:49:18.440Z,57.99
2019-03-17T04:51:49.546Z,58.01
2019-03-17T04:54:20.828Z,57.92
2019-03-17T04:56:51.733Z,57.98
2019-03-17T04:59:22.791Z,57.95
2019-03-17T05:01:54.177Z,57.82
2019-03-17T05:04:25.535Z,57.75
2019-03-17T05:06:56.738Z,57.86
2019-03-17T05:09:27.849Z,57.83
2019-03-17T05:11:58.739Z,57.95
2019-03-17T05:14:30.098Z,57.79
2019-03-17T05:17:01.555Z,57.95
2019-03-17T05:19:32.685Z,57.77
2019-03-17T05:22:03.572Z,57.75
2019-03-17T05:24:34.925Z,57.74
2019-03-17T05:27:05.829Z,57.76
2019-03-17T05:29:37.476Z,57.61
2019-03-17T05:32:08.567Z,57.53
2019-03-17T05:34:39.557Z,57.86
2019-03-17T05:37:10.840Z,57.83
2019-03-17T05:39:42.446Z,57.77
2019-03-17T05:42:13.253Z,57.63
2019-03-17T05:44:44.676Z,57.73
2019-03-17T05:47:15.721Z,57.99
2019-03-17T05:49:46.868Z,57.75
2019-03-17T05:52:18.659Z,57.78
2019-03-17T05:54:50.044Z,57.98
2019-03-17T05:57:20.935Z,57.97
2019-03-17T05:59:52.344Z,58.10
2019-03-17T06:02:23.193Z,58.13
2019-03-17T06:04:54.533Z,58.06
2019-03-17T06:07:25.492Z,57.79
2019-03-17T06:09:56.427Z,57.86
2019-03-17T06:12:27.287Z,57.84
2019-03-17T06:14:58.188Z,57.71
2019-03-17T06:17:29.330Z,57.81
2019-03-17T06:20:00.513Z,57.78
2019-03-17T06:22:31.545Z,57.94
2019-03-17T06:25:02.961Z,57.70
2019-03-17T06:27:33.948Z,57.59
2019-03-17T06:30:05.432Z,57.70
2019-03-17T06:32:36.534Z,57.66
2019-03-17T06:35:07.728Z,57.51
2019-03-17T06:37:39.219Z,57.43
2019-03-17T06:40:13.347Z,57.29
2019-03-17T06:42:44.152Z,57.37
2019-03-17T06:45:15.208Z,57.32
2019-03-17T06:47:46.640Z,57.18
2019-03-17T06:50:17.611Z,56.95
2019-03-17T06:52:48.523Z,57.03
2019-03-17T06:55:19.765Z,57.12
2019-03-17T06:57:50.854Z,57.16
2019-03-17T07:00:21.670Z,57.16
2019-03-17T07:02:53.198Z,56.91
2019-03-17T07:05:24.039Z,56.81
2019-03-17T07:07:55.711Z,56.53
2019-03-17T07:10:27.054Z,56.52
2019-03-17T07:12:57.977Z,56.58
2019-03-17T07:15:29.075Z,56.46
2019-03-17T07:17:59.897Z,56.69
2019-03-17T07:20:31.325Z,56.81
2019-03-17T07:23:02.978Z,56.80
2019-03-17T07:25:34.157Z,57.06
2019-03-17T07:28:04.996Z,57.01
2019-03-17T07:30:36.213Z,56.84
2019-03-17T07:33:07.361Z,56.85
2019-03-17T07:35:39.099Z,56.79
2019-03-17T07:38:10.036Z,56.58
2019-03-17T07:40:41.277Z,56.45
2019-03-17T07:43:14.399Z,56.58
2019-03-17T07:45:45.262Z,56.82
2019-03-17T07:48:17.312Z,56.85
2019-03-17T07:50:48.258Z,56.65
2019-03-17T07:53:19.915Z,56.81
2019-03-17T07:55:51.010Z,57.06
2019-03-17T07:58:22.178Z,56.84
2019-03-17T08:00:53.397Z,56.91
2019-03-17T08:03:24.813Z,57.07
2019-03-17T08:05:56.218Z,56.99
2019-03-17T08:08:27.921Z,56.98
2019-03-17T08:10:59.589Z,57.14
2019-03-17T08:13:31.672Z,57.29
2019-03-17T08:16:03.357Z,57.40
2019-03-17T08:18:34.736Z,57.51
2019-03-17T08:21:06.361Z,57.80
2019-03-17T08:23:37.539Z,57.92
2019-03-17T08:26:08.950Z,57.83
2019-03-17T08:28:39.855Z,57.96
2019-03-17T08:31:11.205Z,58.60
2019-03-17T08:33:42.840Z,59.01
2019-03-17T08:36:14.910Z,59.36
2019-03-17T08:38:46.327Z,59.89
2019-03-17T08:41:18.787Z,60.36
2019-03-17T08:43:54.496Z,60.52
2019-03-17T08:46:26.159Z,59.98
2019-03-17T08:48:57.760Z,60.02
2019-03-17T08:51:29.511Z,59.99
2019-03-17T08:54:00.477Z,60.32
2019-03-17T08:56:31.398Z,61.05
2019-03-17T08:59:02.590Z,61.36
2019-03-17T09:01:33.401Z,61.66
2019-03-17T09:04:04.390Z,61.72
2019-03-17T09:06:36.110Z,61.83
2019-03-17T09:09:08.838Z,62.38
2019-03-17T09:11:40.207Z,62.72
2019-03-17T09:14:11.013Z,62.99
2019-03-17T09:16:41.848Z,63.21
2019-03-17T09:19:14.492Z,63.12
2019-03-17T09:21:45.502Z,63.18
2019-03-17T09:24:17.691Z,63.39
2019-03-17T09:26:48.956Z,63.30
2019-03-17T09:29:20.311Z,63.23
2019-03-17T09:31:51.470Z,62.99
2019-03-17T09:34:22.599Z,63.18
2019-03-17T09:36:54.695Z,63.42
2019-03-17T09:39:26.477Z,63.74
2019-03-17T09:41:57.635Z,64.48
2019-03-17T09:44:28.460Z,64.77
2019-03-17T09:46:59.778Z,65.01
2019-03-17T09:49:30.920Z,64.96
2019-03-17T09:52:01.895Z,65.81
2019-03-17T09:54:33.020Z,66.30
2019-03-17T09:57:03.840Z,66.76
2019-03-17T09:59:35.003Z,66.90
2019-03-17T10:02:05.900Z,67.65
2019-03-17T10:04:36.862Z,68.09
2019-03-17T10:07:07.787Z,69.49
2019-03-17T10:09:38.968Z,71.60
2019-03-17T10:12:11.514Z,71.29
2019-03-17T10:14:42.409Z,71.54
2019-03-17T10:17:13.558Z,72.35
2019-03-17T10:19:44.759Z,72.20
2019-03-17T10:22:17.039Z,72.13
2019-03-17T10:24:47.965Z,71.82
2019-03-17T10:27:18.849Z,72.01
2019-03-17T10:29:50.125Z,71.67
2019-03-17T10:32:20.950Z,72.15
2019-03-17T10:34:52.684Z,71.75
2019-03-17T10:37:23.758Z,71.83
2019-03-17T10:39:55.745Z,71.85
2019-03-17T10:42:27.692Z,71.24
2019-03-17T10:44:59.252Z,70.19
2019-03-17T10:47:30.157Z,69.50
2019-03-17T10:50:01.398Z,69.62
2019-03-17T10:52:32.498Z,68.73
2019-03-17T10:55:03.421Z,68.70
2019-03-17T10:57:34.567Z,68.92
2019-03-17T11:00:06.270Z,69.05
2019-03-17T11:02:37.325Z,68.89
2019-03-17T11:05:08.778Z,67.82
2019-03-17T11:07:39.596Z,67.85
2019-03-17T11:10:11.119Z,66.92
2019-03-17T11:12:42.281Z,66.23
2019-03-17T11:15:13.999Z,66.99
2019-03-17T11:17:49.202Z,67.24
2019-03-17T11:20:20.636Z,66.24
2019-03-17T11:22:51.612Z,66.58
2019-03-17T11:25:22.464Z,66.74
2019-03-17T11:27:53.790Z,65.51
2019-03-17T11:30:24.703Z,64.95
2019-03-17T11:32:55.751Z,65.36
2019-03-17T11:35:27.955Z,64.68
2019-03-17T11:38:00.705Z,65.25
2019-03-17T11:40:31.966Z,64.62
2019-03-17T11:43:06.225Z,64.15
2019-03-17T11:45:38.142Z,63.36
2019-03-17T11:48:09.641Z,62.72
2019-03-17T11:50:40.805Z,63.29
2019-03-17T11:53:11.673Z,62.96
2019-03-17T11:55:42.646Z,63.74
2019-03-17T11:58:16.959Z,62.39
2019-03-17T12:00:49.486Z,61.97
2019-03-17T12:03:20.374Z,61.49
2019-03-17T12:05:51.672Z,61.21
2019-03-17T12:08:24.548Z,61.01
2019-03-17T12:10:55.519Z,60.99
2019-03-17T12:13:27.370Z,60.59
2019-03-17T12:15:58.771Z,60.15
2019-03-17T12:18:30.401Z,59.55
2019-03-17T12:21:02.355Z,59.67
2019-03-17T12:23:34.881Z,59.62
2019-03-17T12:26:06.272Z,59.57
2019-03-17T12:28:39.797Z,60.31
2019-03-17T12:31:12.414Z,59.62
2019-03-17T12:33:43.619Z,60.05
2019-03-17T12:36:15.289Z,60.15
2019-03-17T12:38:46.357Z,59.79
2019-03-17T12:41:18.752Z,59.98
2019-03-17T12:43:50.314Z,59.94
2019-03-17T12:46:21.374Z,59.09
2019-03-17T12:48:52.299Z,58.80
2019-03-17T12:51:23.623Z,57.88
2019-03-17T12:53:54.822Z,57.34
2019-03-17T12:56:26.414Z,56.96
2019-03-17T12:58:57.905Z,56.68
2019-03-17T13:01:29.009Z,56.62
2019-03-17T13:03:59.948Z,56.43
2019-03-17T13:06:33.363Z,56.54
2019-03-17T13:09:08.488Z,57.00
2019-03-17T13:11:39.685Z,56.87
2019-03-17T13:14:10.587Z,56.81
2019-03-17T13:16:41.438Z,56.82
2019-03-17T13:19:12.736Z,57.14
2019-03-17T13:21:44.925Z,57.17
2019-03-17T13:24:15.927Z,57.06
2019-03-17T13:26:47.359Z,56.98
2019-03-17T13:29:18.972Z,56.45
2019-03-17T13:31:49.900Z,56.25
2019-03-17T13:34:21.640Z,55.85
2019-03-17T13:36:52.519Z,55.14
2019-03-17T13:39:25.261Z,54.73
2019-03-17T13:41:56.220Z,54.58
2019-03-17T13:44:27.215Z,54.16
2019-03-17T13:46:58.546Z,54.20
2019-03-17T13:49:29.661Z,53.78
2019-03-17T13:52:01.421Z,53.64
2019-03-17T13:54:32.604Z,53.81
2019-03-17T13:57:04.535Z,53.81
2019-03-17T13:59:35.621Z,53.85
2019-03-17T14:02:06.959Z,53.94
2019-03-17T14:04:39.966Z,53.89
2019-03-17T14:07:11.141Z,52.96
2019-03-17T14:09:42.191Z,52.63
2019-03-17T14:12:14.479Z,51.38
2019-03-17T14:14:46.995Z,51.42
2019-03-17T14:17:19.456Z,53.76
2019-03-17T14:19:50.291Z,55.06
2019-03-17T14:22:21.775Z,56.17
2019-03-17T14:24:53.707Z,56.55
2019-03-17T14:27:24.874Z,56.21
2019-03-17T14:29:56.416Z,56.61
2019-03-17T14:32:28.277Z,56.87
2019-03-17T14:34:59.466Z,56.21
2019-03-17T14:37:30.363Z,55.69
2019-03-17T14:40:01.607Z,55.10
2019-03-17T14:42:33.232Z,54.85
2019-03-17T14:45:04.691Z,54.51
2019-03-17T14:47:35.583Z,54.77
2019-03-17T14:50:08.362Z,54.20
2019-03-17T14:52:39.213Z,54.41
2019-03-17T14:55:10.232Z,54.35
2019-03-17T14:57:41.094Z,54.54
2019-03-17T15:00:14.812Z,55.31
2019-03-17T15:02:46.081Z,55.47
2019-03-17T15:05:18.005Z,55.56
2019-03-17T15:07:48.901Z,55.55
2019-03-17T15:10:20.334Z,55.51
2019-03-17T15:12:51.318Z,55.12
2019-03-17T15:15:22.520Z,54.94
2019-03-17T15:17:53.939Z,54.49
2019-03-17T15:20:24.937Z,56.48
2019-03-17T15:22:55.805Z,61.11
2019-03-17T15:25:27.527Z,63.15
2019-03-17T15:27:58.624Z,63.80
2019-03-17T15:33:08.176Z,65.04
2019-03-17T15:35:39.478Z,64.36
2019-03-17T15:38:10.632Z,63.70
2019-03-17T15:40:41.630Z,63.71
2019-03-17T15:43:12.608Z,63.72
2019-03-17T15:45:43.560Z,63.18
2019-03-17T15:48:14.900Z,62.67
2019-03-17T15:50:45.740Z,61.83
2019-03-17T15:53:16.898Z,62.18
2019-03-17T15:55:47.835Z,62.58
2019-03-17T15:58:18.914Z,63.59
2019-03-17T16:00:49.841Z,63.45
2019-03-17T16:03:21.469Z,63.56
2019-03-17T16:05:52.534Z,61.95
2019-03-17T16:08:23.679Z,60.60
2019-03-17T16:10:54.891Z,60.25
2019-03-17T16:13:26.543Z,60.77
2019-03-17T16:15:57.881Z,60.26
2019-03-17T16:18:28.735Z,59.98
2019-03-17T16:21:00.240Z,59.87
2019-03-17T16:23:31.617Z,58.43
2019-03-17T16:26:02.677Z,58.80
2019-03-17T16:28:34.011Z,58.57
2019-03-17T16:31:05.124Z,58.30
2019-03-17T16:33:36.329Z,58.47
2019-03-17T16:36:07.336Z,58.50
2019-03-17T16:38:38.271Z,59.18
2019-03-17T16:41:12.096Z,59.13
2019-03-17T16:43:42.783Z,58.96
2019-03-17T16:46:13.749Z,59.35
2019-03-17T16:48:45.335Z,59.49
2019-03-17T16:51:16.193Z,59.74
2019-03-17T16:53:47.464Z,60.35
2019-03-17T16:56:18.339Z,60.20
2019-03-17T16:58:49.458Z,60.43
2019-03-17T17:01:20.526Z,60.65
2019-03-17T17:03:51.575Z,60.96
2019-03-17T17:06:23.093Z,61.17
2019-03-17T17:08:53.925Z,61.78
2019-03-17T17:11:27.137Z,61.50
2019-03-17T17:14:01.647Z,61.58
2019-03-17T17:16:36.087Z,61.79
2019-03-17T17:19:06.912Z,61.86
2019-03-17T17:21:38.234Z,61.90
2019-03-17T17:24:09.091Z,62.20
2019-03-17T17:26:40.425Z,62.58
2019-03-17T17:29:11.425Z,62.16
2019-03-17T17:31:42.625Z,63.06
2019-03-17T17:34:13.791Z,63.06
2019-03-17T17:36:44.658Z,62.51
2019-03-17T17:39:20.030Z,62.50
2019-03-17T17:41:51.000Z,62.44
2019-03-17T17:44:22.441Z,63.93
2019-03-17T17:46:53.896Z,64.50
2019-03-17T17:49:25.299Z,64.47
2019-03-17T17:51:58.489Z,65.20
2019-03-17T17:54:30.127Z,65.52
2019-03-17T17:57:01.213Z,64.99
2019-03-17T17:59:32.167Z,65.59
2019-03-17T18:02:03.422Z,65.21
2019-03-17T18:04:36.846Z,65.73
2019-03-17T18:07:07.946Z,65.88
2019-03-17T18:09:38.770Z,65.63
2019-03-17T18:12:20.561Z,65.52
2019-03-17T18:14:42.920Z,65.17
2019-03-17T18:17:13.733Z,65.10
2019-03-17T18:19:44.753Z,65.00
2019-03-17T18:22:15.576Z,64.81
2019-03-17T18:24:47.013Z,64.51
2019-03-17T18:27:18.363Z,64.46
2019-03-17T18:29:49.440Z,64.50
2019-03-17T18:32:20.398Z,64.47
2019-03-17T18:34:51.305Z,64.25
2019-03-17T18:37:22.183Z,63.98
2019-03-17T18:39:52.991Z,64.28
2019-03-17T18:42:32.973Z,64.24
2019-03-17T18:44:57.540Z,64.25
2019-03-17T18:47:28.623Z,64.35
2019-03-17T18:49:59.443Z,64.61
2019-03-17T18:52:30.337Z,63.82
2019-03-17T18:55:01.564Z,64.04
2019-03-17T18:57:33.072Z,63.33
2019-03-17T19:00:04.939Z,63.32
2019-03-17T19:02:36.559Z,63.18
2019-03-17T19:05:07.692Z,63.14
2019-03-17T19:07:39.160Z,63.00
2019-03-17T19:10:10.408Z,63.22
2019-03-17T19:12:45.759Z,63.10
2019-03-17T19:15:14.735Z,62.72
2019-03-17T19:17:45.624Z,62.86
2019-03-17T19:20:16.675Z,62.76
2019-03-17T19:22:47.550Z,62.76
2019-03-17T19:25:18.919Z,62.76
2019-03-17T19:27:49.791Z,62.47
2019-03-17T19:30:20.899Z,62.57
2019-03-17T19:32:51.998Z,62.42
2019-03-17T19:35:23.018Z,62.43
2019-03-17T19:37:54.414Z,62.60
2019-03-17T19:40:26.386Z,62.70
2019-03-17T19:42:59.660Z,62.56
2019-03-17T19:45:30.919Z,62.56
2019-03-17T19:48:02.184Z,62.82
2019-03-17T19:50:33.299Z,62.94
2019-03-17T19:53:04.217Z,62.78
2019-03-17T19:55:35.114Z,62.82
2019-03-17T19:58:06.206Z,62.73
2019-03-17T20:00:37.289Z,63.08
2019-03-17T20:03:08.469Z,63.36
2019-03-17T20:05:39.312Z,63.22
2019-03-17T20:08:10.306Z,63.57
2019-03-17T20:10:41.544Z,64.06
2019-03-17T20:13:12.449Z,64.03
2019-03-17T20:15:43.938Z,64.17
2019-03-17T20:18:14.870Z,64.21
2019-03-17T20:20:45.878Z,64.36
2019-03-17T20:23:16.729Z,64.40
2019-03-17T20:25:47.619Z,64.29
2019-03-17T20:28:18.702Z,64.21
2019-03-17T20:30:49.626Z,64.27
2019-03-17T20:33:26.343Z,63.88
2019-03-17T20:35:57.262Z,63.42
2019-03-17T20:38:29.319Z,63.47
2019-03-17T20:41:00.333Z,63.71
2019-03-17T20:43:34.912Z,63.47
2019-03-17T20:46:03.881Z,63.46
2019-03-17T20:48:34.995Z,63.25
2019-03-17T20:51:06.161Z,63.33
2019-03-17T20:53:36.972Z,63.22
2019-03-17T20:56:08.481Z,63.20
2019-03-17T20:58:39.968Z,63.40
2019-03-17T21:01:10.872Z,63.16
2019-03-17T21:03:42.089Z,63.31
2019-03-17T21:06:13.262Z,63.26
2019-03-17T21:08:44.298Z,63.16
2019-03-17T21:11:15.683Z,62.96
2019-03-17T21:13:47.250Z,63.19
2019-03-17T21:16:18.289Z,62.87
2019-03-17T21:18:49.765Z,63.17
2019-03-17T21:21:21.023Z,63.15
2019-03-17T21:23:51.958Z,63.63
2019-03-17T21:26:23.123Z,63.21
2019-03-17T21:28:54.215Z,63.12
2019-03-17T21:31:25.385Z,63.11
2019-03-17T21:33:57.456Z,63.29
2019-03-17T21:36:28.613Z,63.25
2019-03-17T21:38:59.738Z,63.44
2019-03-17T21:41:30.671Z,63.08
2019-03-17T21:44:01.505Z,62.96
2019-03-17T21:46:32.325Z,62.93
2019-03-17T21:49:03.312Z,63.11
2019-03-17T21:51:34.770Z,63.08
2019-03-17T21:54:05.995Z,62.94
2019-03-17T21:56:36.810Z,63.12
2019-03-17T21:59:07.625Z,63.10
2019-03-17T22:01:38.435Z,62.94
2019-03-17T22:04:09.721Z,63.01
2019-03-17T22:06:40.530Z,63.07
2019-03-17T22:09:12.059Z,63.27
2019-03-17T22:11:42.897Z,63.14
2019-03-17T22:14:13.793Z,63.25
2019-03-17T22:16:44.615Z,63.03
2019-03-17T22:19:15.766Z,63.01
2019-03-17T22:21:46.876Z,62.97
2019-03-17T22:24:18.179Z,63.21
2019-03-17T22:26:49.128Z,63.08
2019-03-17T22:29:20.943Z,62.99
2019-03-17T22:31:51.932Z,63.19
2019-03-17T22:34:22.890Z,62.98
2019-03-17T22:36:53.721Z,62.89
2019-03-17T22:39:24.932Z,62.94
2019-03-17T22:41:58.351Z,63.04
2019-03-17T22:44:29.272Z,62.92
2019-03-17T22:47:00.404Z,63.13
2019-03-17T22:49:31.545Z,62.97
2019-03-17T22:52:03.991Z,62.93
2019-03-17T22:54:35.224Z,63.20
2019-03-17T22:57:05.966Z,63.35
2019-03-17T22:59:37.105Z,63.35
2019-03-17T23:02:08.050Z,63.32
2019-03-17T23:04:39.875Z,63.23
2019-03-17T23:07:10.701Z,62.91
2019-03-17T23:09:41.516Z,62.81
2019-03-17T23:12:12.797Z,62.28
2019-03-17T23:14:43.832Z,62.52
2019-03-17T23:17:14.704Z,62.61
2019-03-17T23:19:45.812Z,62.50
2019-03-17T23:22:16.925Z,62.55
2019-03-17T23:24:48.019Z,62.43
2019-03-17T23:27:19.153Z,62.45
2019-03-17T23:29:50.068Z,62.38
2019-03-17T23:32:20.940Z,62.32
2019-03-17T23:34:51.826Z,62.45
2019-03-17T23:37:22.909Z,62.27
2019-03-17T23:39:53.781Z,62.36
2019-03-17T23:42:24.947Z,62.27
2019-03-17T23:44:58.437Z,62.41
2019-03-17T23:47:31.272Z,62.39
2019-03-17T23:50:02.319Z,62.42
2019-03-17T23:52:33.162Z,62.67
2019-03-17T23:55:04.449Z,62.71
2019-03-17T23:57:36.051Z,62.50
